Villas del Faro, Puerto Rico
Current Conditions -  °F | °C
As of 4:31 PM on Monday 24 Nov 2014 (Local Time) from TJNR Reporting Station
Broken Clouds Broken Clouds  
Wind Chill: 80°   Ceiling: 5000
Heat Index: 85°   Visibility: 10mi
Dew Point: 75°   Wind: 9mph
Humidity: 85%   Direction: 70°ENE
Pressure: 30.02"   Gusts: NA
Location:  18.0098°N, 65.8982°W
Report Text: TJNR 242031Z AUTO 07008KT 10SM FEW018 SCT027 BKN050 27/24 A3002 RMK AO2 RAB01E28 P0001 T02670239 $
Loading
Personal Weather Stations






























Interactive Weather Map New forecast layout! Learn more

10-Day Weather Forecast

Advertisements
Track Severe Weather on mobile